AirNav   Advertisement
 
 633 users online  

32MD Roseland Airport
Sudlersville, Maryland, USA


FAA INFORMATION EFFECTIVE 20 JULY 2017

Location

FAA Identifier: 32MD
Lat/Long: 39-11-22.0000N / 075-52-36.6000W
39-11.366667N / 075-52.610000W
39.1894444 / -75.8768333
(estimated)
Elevation: 70 ft. / 21 m (estimated)
From city: 1 mile W of SUDLERSVILLE, MD
Time zone: UTC -4 (UTC -5 during Standard Time)
Zip code: 21668

Airport Operations

Airport use: Private use. Permission required prior to landing
Activation date: 04/2006
Control tower: no
ARTCC: WASHINGTON CENTER
FSS: LEESBURG FLIGHT SERVICE STATION
Attendance: UNATNDD
Wind indicator: yes
Segmented circle: no

Nearby radio navigation aids

VOR radial/distance  VOR name  Freq  Var
ENOr270/17.0SMYRNA VORTAC111.4009W
PPMr150/21.5PHILLIPS VOR/DME108.4009W
DQOr213/31.9DUPONT VORTAC114.0010W
BALr099/36.5BALTIMORE VORTAC115.1011W
OODr235/37.8WOODSTOWN VORTAC112.8010W
ATRr315/38.5WATERLOO VOR/DME112.6009W

 
NDB name  Hdg/Dist  Freq  Var  ID
ABERDEEN163/23.434910WAPG .- .--. --.
INSTITUTE108/35.340408WIUB .. ..- -...
RAINBOW259/37.136311WRNB .-. -. -...
CAMBRIDGE020/39.835510WCGE -.-. --. .

Airport Services

Runway Information

Runway 13/31

Dimensions: 3000 x 100 ft. / 914 x 30 m
Surface: turf
RUNWAY 13  RUNWAY 31
Traffic pattern: leftleft

Airport Ownership and Management from official FAA records

Ownership: Privately-owned
Owner: PAUL E SCHLOSSER
140 ROSEBUD LANE
SUDLERSVILLE, MD 21668
Phone 410-755-6500
Manager: PAUL A. SCHLOSSER
140 ROSEBUD LAND
SUDLERSVILLE, MD 21668
Phone 410-775-6500

Airport Operational Statistics

Aircraft based on the field: 4
Single engine airplanes: 3
Multi engine airplanes: 1
    

Instrument Procedures

There are no published instrument procedures at 32MD.

Some nearby airports with instrument procedures:

33N - Delaware Airpark (13 nm E)
KRJD - Ridgely Airpark (13 nm S)
KDOV - Dover Air Force Base (19 nm E)
KEVY - Summit Airport (21 nm N)
KAPG - Phillips Army Airfield (21 nm NW)
 
Loc | Ops | Rwys | IFR | FBO | Links
Com | Nav | Svcs | Stats | Notes


 
Area around 32MD (Roseland Airport)
 
Road maps at: MapQuest Bing Google
 
Aerial photo
No photo
 
Sectional chart

 
Airport distance calculator
Flying to Roseland Airport? Find the distance to fly.

From to 32MD

Sunrise and sunset
Times for 21-Jul-2017
 Local
(UTC-4)
 Zulu
(UTC)
Morning civil twilight05:2409:24
Sunrise05:5509:55
Sunset20:2400:24
Evening civil twilight20:5500:55

Current date and time
Zulu (UTC)  21-Jul-2017 04:17:19
Local (UTC-4)  21-Jul-2017 00:17:19
 
METAR
KAPG 
19nm NW 
202352Z 00000KT 7SM BKN150 31/24 A2991
KDOV 
20nm E 
210358Z AUTO 21007KT 10SM SCT200 28/28 A2990 RMK AO2 SLP128 T02770277 $
KEDG 
23nm NW 
SuperAWOS
201639Z AUTO 10SM A2999
KW29 
25nm SW 
210345Z AUTO 20004KT 10SM SCT075 29/24 A2992 RMK AO2
KESN 
25nm S 
210358Z AUTO 22004KT 10SM CLR 29/25 A2996 RMK AO2 T02870245
KMTN 
26nm W 
210357Z AUTO 18003KT 10SM SCT070 30/26 A2993 RMK AO2
TAF
KDOV 
20nm E 
210000Z 2100/2206 27009KT 9999 FEW035 SCT045 QNH2985INS BECMG 2116/2117 23009KT 9999 FEW045 QNH2986INS TX34/2120Z TN25/2108Z
NOTAMs
Click for the latest NOTAMs
NOTAMs are issued by the DoD/FAA and will open in a separate window not controlled by AirNav.

 

 
 

Would you like to see your business listed on this page?

 If your business provides an interesting product or service to pilots, flight crews, aircraft, or users of the Roseland Airport, you should consider listing it here.  To start the listing process, click on the button below
 
Add a business
 

Other Pages about Roseland Airport

Update a link
 
Copyright © AirNav, LLC. All rights reserved. Privacy Policy  Contact